sensor_id;sensor_type;location;lat;lon;timestamp;pressure;altitude;pressure_sealevel;temperature;humidity
61119;BME280;51448;51.660;5.824;2024-03-06T00:00:41;101703.63;;;5.58;96.58
61119;BME280;51448;51.660;5.824;2024-03-06T00:03:08;101701.69;;;5.53;96.97
61119;BME280;51448;51.660;5.824;2024-03-06T00:05:36;101700.84;;;5.48;96.90
61119;BME280;51448;51.660;5.824;2024-03-06T00:08:03;101700.81;;;5.43;96.98
61119;BME280;51448;51.660;5.824;2024-03-06T00:10:31;101713.09;;;5.35;96.83
61119;BME280;51448;51.660;5.824;2024-03-06T00:12:59;101712.50;;;5.28;96.88
61119;BME280;51448;51.660;5.824;2024-03-06T00:15:27;101716.00;;;5.23;97.05
61119;BME280;51448;51.660;5.824;2024-03-06T00:17:55;101714.06;;;5.19;96.81
61119;BME280;51448;51.660;5.824;2024-03-06T00:20:22;101711.81;;;5.16;96.91
61119;BME280;51448;51.660;5.824;2024-03-06T00:22:50;101719.47;;;5.14;96.81
61119;BME280;51448;51.660;5.824;2024-03-06T00:25:17;101714.53;;;5.11;96.62
61119;BME280;51448;51.660;5.824;2024-03-06T00:27:45;101715.88;;;5.08;96.94
61119;BME280;51448;51.660;5.824;2024-03-06T00:30:13;101717.25;;;5.06;96.90
61119;BME280;51448;51.660;5.824;2024-03-06T00:32:40;101723.22;;;5.03;96.51
61119;BME280;51448;51.660;5.824;2024-03-06T00:35:08;101719.94;;;5.00;96.83
61119;BME280;51448;51.660;5.824;2024-03-06T00:37:36;101724.28;;;4.96;96.71
61119;BME280;51448;51.660;5.824;2024-03-06T00:40:04;101730.25;;;4.93;96.69
61119;BME280;51448;51.660;5.824;2024-03-06T00:42:31;101733.19;;;4.87;96.55
61119;BME280;51448;51.660;5.824;2024-03-06T00:45:00;101726.84;;;4.81;96.55
61119;BME280;51448;51.660;5.824;2024-03-06T00:47:29;101733.91;;;4.77;96.81
61119;BME280;51448;51.660;5.824;2024-03-06T00:49:56;101736.09;;;4.75;96.91
61119;BME280;51448;51.660;5.824;2024-03-06T00:52:25;101738.00;;;4.74;97.28
61119;BME280;51448;51.660;5.824;2024-03-06T00:54:52;101746.22;;;4.74;97.23
61119;BME280;51448;51.660;5.824;2024-03-06T00:57:20;101738.00;;;4.74;96.99
61119;BME280;51448;51.660;5.824;2024-03-06T00:59:47;101736.59;;;4.72;97.11
61119;BME280;51448;51.660;5.824;2024-03-06T01:02:15;101748.63;;;4.71;96.96
61119;BME280;51448;51.660;5.824;2024-03-06T01:04:42;101747.50;;;4.67;96.93
61119;BME280;51448;51.660;5.824;2024-03-06T01:07:10;101748.84;;;4.64;96.82
61119;BME280;51448;51.660;5.824;2024-03-06T01:09:37;101749.06;;;4.58;96.93
61119;BME280;51448;51.660;5.824;2024-03-06T01:12:05;101754.69;;;4.51;96.71
61119;BME280;51448;51.660;5.824;2024-03-06T01:14:33;101756.53;;;4.45;97.21
61119;BME280;51448;51.660;5.824;2024-03-06T01:17:04;101766.09;;;4.43;97.55
61119;BME280;51448;51.660;5.824;2024-03-06T01:19:32;101758.94;;;4.37;97.51
61119;BME280;51448;51.660;5.824;2024-03-06T01:22:00;101763.75;;;4.30;97.43
61119;BME280;51448;51.660;5.824;2024-03-06T01:24:27;101760.97;;;4.25;97.39
61119;BME280;51448;51.660;5.824;2024-03-06T01:26:55;101768.00;;;4.20;97.64
61119;BME280;51448;51.660;5.824;2024-03-06T01:29:22;101763.03;;;4.17;97.77
61119;BME280;51448;51.660;5.824;2024-03-06T01:31:50;101771.25;;;4.17;97.78
61119;BME280;51448;51.660;5.824;2024-03-06T01:34:17;101771.50;;;4.16;97.71
61119;BME280;51448;51.660;5.824;2024-03-06T01:36:45;101769.53;;;4.11;97.66
61119;BME280;51448;51.660;5.824;2024-03-06T01:39:13;101776.00;;;4.05;97.67
61119;BME280;51448;51.660;5.824;2024-03-06T01:41:48;101778.19;;;4.03;97.66
61119;BME280;51448;51.660;5.824;2024-03-06T01:44:27;101780.31;;;4.01;97.54
61119;BME280;51448;51.660;5.824;2024-03-06T01:46:55;101781.41;;;4.00;97.74
61119;BME280;51448;51.660;5.824;2024-03-06T01:49:23;101792.88;;;4.02;97.45
61119;BME280;51448;51.660;5.824;2024-03-06T01:52:08;101784.69;;;4.02;97.79
61119;BME280;51448;51.660;5.824;2024-03-06T01:54:39;101787.44;;;4.02;97.80
61119;BME280;51448;51.660;5.824;2024-03-06T01:57:07;101792.06;;;4.02;97.40
61119;BME280;51448;51.660;5.824;2024-03-06T01:59:35;101787.69;;;4.01;97.43
61119;BME280;51448;51.660;5.824;2024-03-06T02:02:04;101789.03;;;3.98;97.39
61119;BME280;51448;51.660;5.824;2024-03-06T02:04:32;101789.25;;;3.96;97.54
61119;BME280;51448;51.660;5.824;2024-03-06T02:07:01;101794.97;;;3.95;97.74
61119;BME280;51448;51.660;5.824;2024-03-06T02:09:29;101798.78;;;3.94;97.86
61119;BME280;51448;51.660;5.824;2024-03-06T02:11:57;101798.78;;;3.94;97.75
61119;BME280;51448;51.660;5.824;2024-03-06T02:14:24;101797.72;;;3.95;98.10
61119;BME280;51448;51.660;5.824;2024-03-06T02:16:52;101803.25;;;4.00;98.26
61119;BME280;51448;51.660;5.824;2024-03-06T02:19:20;101801.34;;;4.01;98.33
61119;BME280;51448;51.660;5.824;2024-03-06T02:21:47;101801.94;;;4.03;98.26
61119;BME280;51448;51.660;5.824;2024-03-06T02:24:15;101796.22;;;4.04;98.46
61119;BME280;51448;51.660;5.824;2024-03-06T02:26:42;101795.94;;;4.06;98.71
61119;BME280;51448;51.660;5.824;2024-03-06T02:29:10;101791.31;;;4.06;98.65
61119;BME280;51448;51.660;5.824;2024-03-06T02:31:38;101795.47;;;4.09;98.61
61119;BME280;51448;51.660;5.824;2024-03-06T02:34:06;101805.84;;;4.12;98.59
61119;BME280;51448;51.660;5.824;2024-03-06T02:36:34;101805.84;;;4.12;98.61
61119;BME280;51448;51.660;5.824;2024-03-06T02:39:03;101809.69;;;4.11;98.24
61119;BME280;51448;51.660;5.824;2024-03-06T02:41:36;101810.50;;;4.11;98.56
61119;BME280;51448;51.660;5.824;2024-03-06T02:44:04;101806.69;;;4.12;98.72
61119;BME280;51448;51.660;5.824;2024-03-06T02:46:32;101805.84;;;4.12;99.17
61119;BME280;51448;51.660;5.824;2024-03-06T02:48:59;101814.88;;;4.12;99.06
61119;BME280;51448;51.660;5.824;2024-03-06T02:51:27;101805.84;;;4.12;99.31
61119;BME280;51448;51.660;5.824;2024-03-06T02:53:55;101807.78;;;4.11;99.21
61119;BME280;51448;51.660;5.824;2024-03-06T02:56:22;101801.47;;;4.11;99.25
61119;BME280;51448;51.660;5.824;2024-03-06T02:58:50;101801.75;;;4.09;98.90
61119;BME280;51448;51.660;5.824;2024-03-06T03:01:17;101800.09;;;4.08;99.28
61119;BME280;51448;51.660;5.824;2024-03-06T03:03:45;101812.34;;;4.06;99.19
61119;BME280;51448;51.660;5.824;2024-03-06T03:06:14;101802.75;;;4.03;99.29
61119;BME280;51448;51.660;5.824;2024-03-06T03:08:41;101801.94;;;4.03;99.26
61119;BME280;51448;51.660;5.824;2024-03-06T03:11:09;101799.69;;;4.00;99.23
61119;BME280;51448;51.660;5.824;2024-03-06T03:13:37;101802.59;;;3.93;99.00
61119;BME280;51448;51.660;5.824;2024-03-06T03:16:05;101810.97;;;3.86;99.11
61119;BME280;51448;51.660;5.824;2024-03-06T03:18:33;101816.38;;;3.81;98.82
61119;BME280;51448;51.660;5.824;2024-03-06T03:21:00;101811.06;;;3.75;98.89
61119;BME280;51448;51.660;5.824;2024-03-06T03:23:28;101812.56;;;3.65;98.93
61119;BME280;51448;51.660;5.824;2024-03-06T03:25:56;101817.94;;;3.60;99.58
61119;BME280;51448;51.660;5.824;2024-03-06T03:28:24;101823.31;;;3.55;99.20
61119;BME280;51448;51.660;5.824;2024-03-06T03:30:52;101827.06;;;3.49;99.39
61119;BME280;51448;51.660;5.824;2024-03-06T03:33:19;101827.78;;;3.45;98.94
61119;BME280;51448;51.660;5.824;2024-03-06T03:35:47;101830.78;;;3.43;99.22
61119;BME280;51448;51.660;5.824;2024-03-06T03:38:14;101826.63;;;3.40;99.23
61119;BME280;51448;51.660;5.824;2024-03-06T03:40:42;101817.88;;;3.38;99.00
61119;BME280;51448;51.660;5.824;2024-03-06T03:43:10;101824.41;;;3.37;99.13
61119;BME280;51448;51.660;5.824;2024-03-06T03:45:37;101830.09;;;3.36;98.76
61119;BME280;51448;51.660;5.824;2024-03-06T03:48:06;101819.69;;;3.33;99.01
61119;BME280;51448;51.660;5.824;2024-03-06T03:50:33;101829.78;;;3.32;99.24
61119;BME280;51448;51.660;5.824;2024-03-06T03:53:01;101830.81;;;3.31;99.05
61119;BME280;51448;51.660;5.824;2024-03-06T03:55:29;101833.81;;;3.30;99.05
61119;BME280;51448;51.660;5.824;2024-03-06T03:57:56;101833.25;;;3.28;99.29
61119;BME280;51448;51.660;5.824;2024-03-06T04:00:24;101833.25;;;3.28;98.79
61119;BME280;51448;51.660;5.824;2024-03-06T04:02:51;101833.50;;;3.26;99.02
61119;BME280;51448;51.660;5.824;2024-03-06T04:05:19;101835.88;;;3.23;99.08
61119;BME280;51448;51.660;5.824;2024-03-06T04:07:47;101830.31;;;3.17;99.02
61119;BME280;51448;51.660;5.824;2024-03-06T04:10:15;101830.81;;;3.14;99.13
61119;BME280;51448;51.660;5.824;2024-03-06T04:12:42;101832.38;;;3.10;99.31
61119;BME280;51448;51.660;5.824;2024-03-06T04:15:10;101835.34;;;3.09;98.96
61119;BME280;51448;51.660;5.824;2024-03-06T04:17:38;101844.03;;;3.06;99.34
61119;BME280;51448;51.660;5.824;2024-03-06T04:20:05;101840.69;;;3.04;99.46
61119;BME280;51448;51.660;5.824;2024-03-06T04:22:34;101843.31;;;2.99;99.34
61119;BME280;51448;51.660;5.824;2024-03-06T04:25:01;101846.81;;;2.94;99.37
61119;BME280;51448;51.660;5.824;2024-03-06T04:27:31;101841.59;;;2.93;99.68
61119;BME280;51448;51.660;5.824;2024-03-06T04:29:58;101848.25;;;2.85;100.00
61119;BME280;51448;51.660;5.824;2024-03-06T04:32:27;101850.31;;;2.78;100.00
61119;BME280;51448;51.660;5.824;2024-03-06T04:34:55;101844.25;;;2.76;100.00
61119;BME280;51448;51.660;5.824;2024-03-06T04:37:23;101848.88;;;2.75;100.00
61119;BME280;51448;51.660;5.824;2024-03-06T04:39:51;101858.13;;;2.74;100.00
61119;BME280;51448;51.660;5.824;2024-03-06T04:42:18;101866.31;;;2.74;100.00
61119;BME280;51448;51.660;5.824;2024-03-06T04:44:46;101867.13;;;2.75;100.00
61119;BME280;51448;51.660;5.824;2024-03-06T04:47:13;101852.44;;;2.76;100.00
61119;BME280;51448;51.660;5.824;2024-03-06T04:49:41;101862.50;;;2.75;100.00
61119;BME280;51448;51.660;5.824;2024-03-06T04:52:09;101857.66;;;2.77;100.00
61119;BME280;51448;51.660;5.824;2024-03-06T04:54:37;101871.63;;;2.81;100.00
61119;BME280;51448;51.660;5.824;2024-03-06T04:57:04;101874.94;;;2.83;100.00
61119;BME280;51448;51.660;5.824;2024-03-06T04:59:32;101884.78;;;2.84;100.00
61119;BME280;51448;51.660;5.824;2024-03-06T05:01:59;101884.41;;;2.80;100.00
61119;BME280;51448;51.660;5.824;2024-03-06T05:04:27;101890.03;;;2.74;100.00
61119;BME280;51448;51.660;5.824;2024-03-06T05:07:12;101883.88;;;2.67;100.00
61119;BME280;51448;51.660;5.824;2024-03-06T05:09:58;101895.84;;;2.66;100.00
61119;BME280;51448;51.660;5.824;2024-03-06T05:12:43;101898.22;;;2.62;100.00
61119;BME280;51448;51.660;5.824;2024-03-06T05:15:28;101908.78;;;2.58;100.00
61119;BME280;51448;51.660;5.824;2024-03-06T05:18:13;101908.19;;;2.56;100.00
61119;BME280;51448;51.660;5.824;2024-03-06T05:20:58;101915.03;;;2.59;100.00
61119;BME280;51448;51.660;5.824;2024-03-06T05:23:43;101918.84;;;2.58;100.00
61119;BME280;51448;51.660;5.824;2024-03-06T05:26:28;101919.31;;;2.55;100.00
61119;BME280;51448;51.660;5.824;2024-03-06T05:29:13;101920.13;;;2.55;100.00
61119;BME280;51448;51.660;5.824;2024-03-06T05:31:58;101924.53;;;2.56;100.00
61119;BME280;51448;51.660;5.824;2024-03-06T05:34:43;101926.78;;;2.59;100.00
61119;BME280;51448;51.660;5.824;2024-03-06T05:37:29;101924.53;;;2.56;100.00
61119;BME280;51448;51.660;5.824;2024-03-06T05:40:14;101931.91;;;2.56;100.00
61119;BME280;51448;51.660;5.824;2024-03-06T05:42:59;101929.38;;;2.54;100.00
61119;BME280;51448;51.660;5.824;2024-03-06T05:45:44;101932.09;;;2.54;100.00
61119;BME280;51448;51.660;5.824;2024-03-06T05:48:29;101942.44;;;2.52;100.00
61119;BME280;51448;51.660;5.824;2024-03-06T05:51:14;101944.31;;;2.52;100.00
61119;BME280;51448;51.660;5.824;2024-03-06T05:53:59;101949.41;;;2.48;100.00
61119;BME280;51448;51.660;5.824;2024-03-06T05:56:44;101951.44;;;2.41;100.00
61119;BME280;51448;51.660;5.824;2024-03-06T05:59:29;101955.94;;;2.35;100.00
61119;BME280;51448;51.660;5.824;2024-03-06T06:01:57;101961.03;;;2.32;100.00
61119;BME280;51448;51.660;5.824;2024-03-06T06:04:24;101964.00;;;2.30;100.00
61119;BME280;51448;51.660;5.824;2024-03-06T06:06:52;101971.09;;;2.31;100.00
61119;BME280;51448;51.660;5.824;2024-03-06T06:09:20;101974.41;;;2.33;100.00
61119;BME280;51448;51.660;5.824;2024-03-06T06:11:48;101972.03;;;2.37;100.00
61119;BME280;51448;51.660;5.824;2024-03-06T06:14:17;101980.78;;;2.39;100.00
61119;BME280;51448;51.660;5.824;2024-03-06T06:16:45;101982.47;;;2.40;100.00
61119;BME280;51448;51.660;5.824;2024-03-06T06:19:13;101986.84;;;2.41;100.00
61119;BME280;51448;51.660;5.824;2024-03-06T06:21:40;101983.53;;;2.39;100.00
61119;BME280;51448;51.660;5.824;2024-03-06T06:24:08;101986.50;;;2.37;100.00
61119;BME280;51448;51.660;5.824;2024-03-06T06:26:35;101990.03;;;2.38;100.00
61119;BME280;51448;51.660;5.824;2024-03-06T06:29:03;102002.59;;;2.39;100.00
61119;BME280;51448;51.660;5.824;2024-03-06T06:31:31;102005.44;;;2.44;100.00
61119;BME280;51448;51.660;5.824;2024-03-06T06:33:59;102007.44;;;2.49;100.00
61119;BME280;51448;51.660;5.824;2024-03-06T06:36:26;102016.00;;;2.52;100.00
61119;BME280;51448;51.660;5.824;2024-03-06T06:38:54;102015.75;;;2.54;100.00
61119;BME280;51448;51.660;5.824;2024-03-06T06:41:22;102016.56;;;2.54;100.00
61119;BME280;51448;51.660;5.824;2024-03-06T06:43:50;102010.91;;;2.56;100.00
61119;BME280;51448;51.660;5.824;2024-03-06T06:46:19;102018.84;;;2.57;100.00
61119;BME280;51448;51.660;5.824;2024-03-06T06:48:48;102032.72;;;2.56;100.00
61119;BME280;51448;51.660;5.824;2024-03-06T06:51:16;102030.81;;;2.56;100.00
61119;BME280;51448;51.660;5.824;2024-03-06T06:53:43;102032.84;;;2.61;100.00
61119;BME280;51448;51.660;5.824;2024-03-06T06:56:11;102035.88;;;2.64;100.00
61119;BME280;51448;51.660;5.824;2024-03-06T06:58:39;102043.34;;;2.69;100.00
61119;BME280;51448;51.660;5.824;2024-03-06T07:01:10;102045.38;;;2.74;100.00
61119;BME280;51448;51.660;5.824;2024-03-06T07:03:37;102051.41;;;2.76;100.00
61119;BME280;51448;51.660;5.824;2024-03-06T07:06:05;102042.78;;;2.79;100.00
61119;BME280;51448;51.660;5.824;2024-03-06T07:08:33;102048.91;;;2.86;100.00
61119;BME280;51448;51.660;5.824;2024-03-06T07:11:01;102052.22;;;2.88;100.00
61119;BME280;51448;51.660;5.824;2024-03-06T07:13:29;102058.88;;;2.92;100.00
61119;BME280;51448;51.660;5.824;2024-03-06T07:15:56;102061.72;;;2.97;100.00
61119;BME280;51448;51.660;5.824;2024-03-06T07:18:24;102066.22;;;3.03;100.00
61119;BME280;51448;51.660;5.824;2024-03-06T07:20:51;102072.38;;;3.10;100.00
61119;BME280;51448;51.660;5.824;2024-03-06T07:23:19;102072.50;;;3.15;100.00
61119;BME280;51448;51.660;5.824;2024-03-06T07:25:47;102073.91;;;3.18;100.00
61119;BME280;51448;51.660;5.824;2024-03-06T07:28:15;102070.47;;;3.23;100.00
61119;BME280;51448;51.660;5.824;2024-03-06T07:30:42;102077.94;;;3.27;100.00
61119;BME280;51448;51.660;5.824;2024-03-06T07:33:10;102079.09;;;3.31;100.00
61119;BME280;51448;51.660;5.824;2024-03-06T07:35:37;102082.75;;;3.37;100.00
61119;BME280;51448;51.660;5.824;2024-03-06T07:38:05;102081.09;;;3.36;100.00
61119;BME280;51448;51.660;5.824;2024-03-06T07:40:33;102083.59;;;3.37;100.00
61119;BME280;51448;51.660;5.824;2024-03-06T07:43:00;102095.91;;;3.40;100.00
61119;BME280;51448;51.660;5.824;2024-03-06T07:45:28;102100.91;;;3.43;100.00
61119;BME280;51448;51.660;5.824;2024-03-06T07:47:56;102106.38;;;3.43;100.00
61119;BME280;51448;51.660;5.824;2024-03-06T07:50:24;102100.16;;;3.48;100.00
61119;BME280;51448;51.660;5.824;2024-03-06T07:52:53;102098.63;;;3.52;100.00
61119;BME280;51448;51.660;5.824;2024-03-06T07:55:22;102094.59;;;3.54;100.00
61119;BME280;51448;51.660;5.824;2024-03-06T07:57:49;102107.16;;;3.55;100.00
61119;BME280;51448;51.660;5.824;2024-03-06T08:00:17;102103.34;;;3.56;100.00
61119;BME280;51448;51.660;5.824;2024-03-06T08:02:47;102111.91;;;3.60;100.00
61119;BME280;51448;51.660;5.824;2024-03-06T08:05:17;102109.03;;;3.66;100.00
61119;BME280;51448;51.660;5.824;2024-03-06T08:07:46;102109.50;;;3.75;100.00
61119;BME280;51448;51.660;5.824;2024-03-06T08:10:14;102114.19;;;3.80;100.00
61119;BME280;51448;51.660;5.824;2024-03-06T08:12:42;102114.78;;;3.82;100.00
61119;BME280;51448;51.660;5.824;2024-03-06T08:15:13;102113.22;;;3.86;100.00
61119;BME280;51448;51.660;5.824;2024-03-06T08:17:42;102122.69;;;3.95;100.00
61119;BME280;51448;51.660;5.824;2024-03-06T08:20:12;102120.56;;;3.97;100.00
61119;BME280;51448;51.660;5.824;2024-03-06T08:22:41;102126.94;;;4.03;100.00
61119;BME280;51448;51.660;5.824;2024-03-06T08:25:11;102132.84;;;4.11;100.00
61119;BME280;51448;51.660;5.824;2024-03-06T08:27:40;102133.28;;;4.20;100.00
61119;BME280;51448;51.660;5.824;2024-03-06T08:30:09;102133.69;;;4.29;100.00
61119;BME280;51448;51.660;5.824;2024-03-06T08:32:37;102128.91;;;4.36;100.00
61119;BME280;51448;51.660;5.824;2024-03-06T08:35:08;102131.97;;;4.39;100.00
61119;BME280;51448;51.660;5.824;2024-03-06T08:37:43;102138.34;;;4.45;100.00
61119;BME280;51448;51.660;5.824;2024-03-06T08:40:11;102140.59;;;4.48;100.00
61119;BME280;51448;51.660;5.824;2024-03-06T08:42:42;102142.59;;;4.53;100.00
61119;BME280;51448;51.660;5.824;2024-03-06T08:45:11;102148.47;;;4.61;100.00
61119;BME280;51448;51.660;5.824;2024-03-06T08:47:39;102152.72;;;4.69;100.00
61119;BME280;51448;51.660;5.824;2024-03-06T08:50:06;102156.94;;;4.77;100.00
61119;BME280;51448;51.660;5.824;2024-03-06T08:52:36;102155.94;;;4.83;100.00
61119;BME280;51448;51.660;5.824;2024-03-06T08:55:04;102158.53;;;4.89;100.00
61119;BME280;51448;51.660;5.824;2024-03-06T08:57:36;102165.22;;;4.98;100.00
61119;BME280;51448;51.660;5.824;2024-03-06T09:00:07;102167.78;;;5.05;100.00
61119;BME280;51448;51.660;5.824;2024-03-06T09:02:39;102168.97;;;5.09;100.00
61119;BME280;51448;51.660;5.824;2024-03-06T09:05:09;102167.03;;;5.10;100.00
61119;BME280;51448;51.660;5.824;2024-03-06T09:07:40;102172.84;;;5.13;100.00
61119;BME280;51448;51.660;5.824;2024-03-06T09:10:10;102173.00;;;5.23;100.00
61119;BME280;51448;51.660;5.824;2024-03-06T09:12:38;102175.91;;;5.34;100.00
61119;BME280;51448;51.660;5.824;2024-03-06T09:15:06;102184.75;;;5.41;100.00
61119;BME280;51448;51.660;5.824;2024-03-06T09:17:34;102181.28;;;5.45;100.00
61119;BME280;51448;51.660;5.824;2024-03-06T09:20:02;102179.91;;;5.48;100.00
61119;BME280;51448;51.660;5.824;2024-03-06T09:22:41;102191.22;;;5.51;100.00
61119;BME280;51448;51.660;5.824;2024-03-06T09:25:11;102186.28;;;5.53;100.00
61119;BME280;51448;51.660;5.824;2024-03-06T09:27:41;102194.34;;;5.60;100.00
61119;BME280;51448;51.660;5.824;2024-03-06T09:30:09;102187.84;;;5.66;100.00
61119;BME280;51448;51.660;5.824;2024-03-06T09:32:38;102190.75;;;5.76;100.00
61119;BME280;51448;51.660;5.824;2024-03-06T09:35:06;102197.47;;;5.91;100.00
61119;BME280;51448;51.660;5.824;2024-03-06T09:37:34;102204.53;;;6.03;100.00
61119;BME280;51448;51.660;5.824;2024-03-06T09:40:02;102202.72;;;6.14;100.00
61119;BME280;51448;51.660;5.824;2024-03-06T09:42:30;102203.63;;;6.20;100.00
61119;BME280;51448;51.660;5.824;2024-03-06T09:44:58;102208.59;;;6.23;100.00
61119;BME280;51448;51.660;5.824;2024-03-06T09:47:30;102203.94;;;6.23;100.00
61119;BME280;51448;51.660;5.824;2024-03-06T09:50:00;102211.13;;;6.29;100.00
61119;BME280;51448;51.660;5.824;2024-03-06T09:52:30;102206.00;;;6.38;100.00
61119;BME280;51448;51.660;5.824;2024-03-06T09:54:59;102214.09;;;6.50;100.00
61119;BME280;51448;51.660;5.824;2024-03-06T09:57:28;102225.66;;;6.57;100.00
61119;BME280;51448;51.660;5.824;2024-03-06T09:59:55;102226.88;;;6.66;100.00
61119;BME280;51448;51.660;5.824;2024-03-06T10:02:38;102223.66;;;6.74;100.00
61119;BME280;51448;51.660;5.824;2024-03-06T10:05:24;102222.03;;;6.78;100.00
61119;BME280;51448;51.660;5.824;2024-03-06T10:07:52;102229.22;;;6.84;100.00
61119;BME280;51448;51.660;5.824;2024-03-06T10:10:20;102236.59;;;6.79;100.00
61119;BME280;51448;51.660;5.824;2024-03-06T10:12:50;102235.97;;;6.72;100.00
61119;BME280;51448;51.660;5.824;2024-03-06T10:15:18;102231.03;;;6.74;100.00
61119;BME280;51448;51.660;5.824;2024-03-06T10:17:46;102237.16;;;6.81;100.00
61119;BME280;51448;51.660;5.824;2024-03-06T10:20:18;102240.31;;;6.95;100.00
61119;BME280;51448;51.660;5.824;2024-03-06T10:22:53;102234.34;;;7.03;100.00
61119;BME280;51448;51.660;5.824;2024-03-06T10:25:25;102238.84;;;7.14;100.00
61119;BME280;51448;51.660;5.824;2024-03-06T10:28:12;102240.56;;;7.25;100.00
61119;BME280;51448;51.660;5.824;2024-03-06T10:30:41;102231.28;;;7.31;100.00
61119;BME280;51448;51.660;5.824;2024-03-06T10:33:11;102231.34;;;7.42;100.00
61119;BME280;51448;51.660;5.824;2024-03-06T10:35:44;102240.25;;;7.59;100.00
61119;BME280;51448;51.660;5.824;2024-03-06T10:38:14;102235.66;;;7.70;100.00
61119;BME280;51448;51.660;5.824;2024-03-06T10:40:43;102232.44;;;7.83;100.00
61119;BME280;51448;51.660;5.824;2024-03-06T10:43:11;102233.03;;;7.95;100.00
61119;BME280;51448;51.660;5.824;2024-03-06T10:45:48;102225.41;;;8.12;100.00
61119;BME280;51448;51.660;5.824;2024-03-06T10:48:20;102238.94;;;8.24;100.00
61119;BME280;51448;51.660;5.824;2024-03-06T10:50:49;102233.44;;;8.29;100.00
61119;BME280;51448;51.660;5.824;2024-03-06T10:53:18;102238.47;;;8.37;100.00
61119;BME280;51448;51.660;5.824;2024-03-06T10:55:50;102234.63;;;8.43;100.00
61119;BME280;51448;51.660;5.824;2024-03-06T10:58:19;102237.97;;;8.56;100.00
61119;BME280;51448;51.660;5.824;2024-03-06T11:00:48;102243.22;;;8.67;100.00
61119;BME280;51448;51.660;5.824;2024-03-06T11:03:17;102242.41;;;8.72;100.00
61119;BME280;51448;51.660;5.824;2024-03-06T11:05:45;102243.50;;;8.71;100.00
61119;BME280;51448;51.660;5.824;2024-03-06T11:08:19;102239.94;;;8.76;100.00
61119;BME280;51448;51.660;5.824;2024-03-06T11:10:48;102241.84;;;8.85;100.00
61119;BME280;51448;51.660;5.824;2024-03-06T11:15:47;102251.53;;;9.03;100.00
61119;BME280;51448;51.660;5.824;2024-03-06T11:23:31;102244.91;;;9.25;100.00
61119;BME280;51448;51.660;5.824;2024-03-06T11:28:37;102243.22;;;9.44;100.00
61119;BME280;51448;51.660;5.824;2024-03-06T11:31:09;102241.00;;;9.51;100.00
61119;BME280;51448;51.660;5.824;2024-03-06T11:33:47;102243.50;;;9.63;100.00
61119;BME280;51448;51.660;5.824;2024-03-06T11:36:27;102247.88;;;9.74;100.00
61119;BME280;51448;51.660;5.824;2024-03-06T11:38:58;102254.22;;;9.80;100.00
61119;BME280;51448;51.660;5.824;2024-03-06T11:41:30;102245.34;;;9.88;100.00
61119;BME280;51448;51.660;5.824;2024-03-06T11:44:00;102251.66;;;9.98;99.41
61119;BME280;51448;51.660;5.824;2024-03-06T11:49:31;102248.25;;;10.22;99.51
61119;BME280;51448;51.660;5.824;2024-03-06T11:52:07;102241.34;;;10.35;98.41
61119;BME280;51448;51.660;5.824;2024-03-06T11:54:36;102245.69;;;10.46;97.97
61119;BME280;51448;51.660;5.824;2024-03-06T11:57:06;102255.84;;;10.56;97.86
61119;BME280;51448;51.660;5.824;2024-03-06T11:59:35;102250.28;;;10.66;96.58
61119;BME280;51448;51.660;5.824;2024-03-06T12:02:07;102249.13;;;10.72;95.91
61119;BME280;51448;51.660;5.824;2024-03-06T12:04:35;102249.63;;;10.79;94.70
61119;BME280;51448;51.660;5.824;2024-03-06T12:07:07;102246.84;;;10.84;93.40
61119;BME280;51448;51.660;5.824;2024-03-06T12:09:38;102251.47;;;10.94;93.29
61119;BME280;51448;51.660;5.824;2024-03-06T12:12:10;102245.63;;;11.00;91.10
61119;BME280;51448;51.660;5.824;2024-03-06T12:14:39;102240.63;;;11.02;91.15
61119;BME280;51448;51.660;5.824;2024-03-06T12:17:13;102244.16;;;11.08;91.37
61119;BME280;51448;51.660;5.824;2024-03-06T12:19:43;102243.25;;;11.18;90.39
61119;BME280;51448;51.660;5.824;2024-03-06T12:22:13;102242.69;;;11.21;89.53
61119;BME280;51448;51.660;5.824;2024-03-06T12:24:46;102249.56;;;11.23;90.34
61119;BME280;51448;51.660;5.824;2024-03-06T12:27:13;102251.44;;;11.33;90.35
61119;BME280;51448;51.660;5.824;2024-03-06T12:29:41;102248.03;;;11.41;89.59
61119;BME280;51448;51.660;5.824;2024-03-06T12:32:17;102248.03;;;11.41;89.54
61119;BME280;51448;51.660;5.824;2024-03-06T12:34:57;102253.84;;;11.40;89.59
61119;BME280;51448;51.660;5.824;2024-03-06T12:37:29;102253.59;;;11.36;89.01
61119;BME280;51448;51.660;5.824;2024-03-06T12:40:03;102247.84;;;11.32;88.14
61119;BME280;51448;51.660;5.824;2024-03-06T12:42:40;102245.59;;;11.35;87.56
61119;BME280;51448;51.660;5.824;2024-03-06T12:45:08;102249.47;;;11.33;85.41
61119;BME280;51448;51.660;5.824;2024-03-06T12:47:37;102248.69;;;11.28;85.84
61119;BME280;51448;51.660;5.824;2024-03-06T12:50:05;102244.28;;;11.27;85.36
61119;BME280;51448;51.660;5.824;2024-03-06T12:52:35;102244.84;;;11.24;85.53
61119;BME280;51448;51.660;5.824;2024-03-06T12:55:03;102244.59;;;11.25;85.66
61119;BME280;51448;51.660;5.824;2024-03-06T12:57:34;102244.78;;;11.34;85.11
61119;BME280;51448;51.660;5.824;2024-03-06T13:00:02;102250.78;;;11.41;84.25
61119;BME280;51448;51.660;5.824;2024-03-06T13:02:30;102247.41;;;11.49;84.36
61119;BME280;51448;51.660;5.824;2024-03-06T13:04:58;102238.47;;;11.57;83.10
61119;BME280;51448;51.660;5.824;2024-03-06T13:07:25;102232.81;;;11.68;83.25
61119;BME280;51448;51.660;5.824;2024-03-06T13:09:54;102236.03;;;11.80;81.73
61119;BME280;51448;51.660;5.824;2024-03-06T13:12:21;102239.91;;;11.79;80.61
61119;BME280;51448;51.660;5.824;2024-03-06T13:14:49;102237.47;;;11.72;80.44
61119;BME280;51448;51.660;5.824;2024-03-06T13:17:17;102232.25;;;11.71;80.74
61119;BME280;51448;51.660;5.824;2024-03-06T13:19:45;102236.66;;;11.72;80.90